sensor_id;sensor_type;location;lat;lon;timestamp;P1;durP1;ratioP1;P2;durP2;ratioP2
7929;SDS011;4010;42.698;23.124;2022-09-12T00:00:26;2.63;;;2.43;;
7929;SDS011;4010;42.698;23.124;2022-09-12T00:02:57;1.93;;;1.83;;
7929;SDS011;4010;42.698;23.124;2022-09-12T00:05:25;2.90;;;2.27;;
7929;SDS011;4010;42.698;23.124;2022-09-12T00:07:52;2.73;;;2.53;;
7929;SDS011;4010;42.698;23.124;2022-09-12T00:10:19;2.50;;;2.30;;
7929;SDS011;4010;42.698;23.124;2022-09-12T00:12:45;2.40;;;2.20;;
7929;SDS011;4010;42.698;23.124;2022-09-12T00:15:12;2.47;;;2.27;;
7929;SDS011;4010;42.698;23.124;2022-09-12T00:17:39;2.47;;;2.27;;
7929;SDS011;4010;42.698;23.124;2022-09-12T00:20:08;2.87;;;2.63;;
7929;SDS011;4010;42.698;23.124;2022-09-12T00:22:36;2.10;;;2.00;;
7929;SDS011;4010;42.698;23.124;2022-09-12T00:25:03;2.83;;;2.60;;
7929;SDS011;4010;42.698;23.124;2022-09-12T00:27:30;3.47;;;2.33;;
7929;SDS011;4010;42.698;23.124;2022-09-12T00:29:57;2.37;;;2.17;;
7929;SDS011;4010;42.698;23.124;2022-09-12T00:32:24;2.40;;;2.20;;
7929;SDS011;4010;42.698;23.124;2022-09-12T00:34:50;1.90;;;1.70;;
7929;SDS011;4010;42.698;23.124;2022-09-12T00:37:18;2.67;;;2.30;;
7929;SDS011;4010;42.698;23.124;2022-09-12T00:39:45;1.90;;;1.80;;
7929;SDS011;4010;42.698;23.124;2022-09-12T00:42:12;2.00;;;1.90;;
7929;SDS011;4010;42.698;23.124;2022-09-12T00:44:43;1.60;;;1.50;;
7929;SDS011;4010;42.698;23.124;2022-09-12T00:47:13;2.40;;;2.20;;
7929;SDS011;4010;42.698;23.124;2022-09-12T00:49:44;2.40;;;2.10;;
7929;SDS011;4010;42.698;23.124;2022-09-12T00:52:15;1.83;;;1.73;;
7929;SDS011;4010;42.698;23.124;2022-09-12T00:54:50;1.80;;;1.70;;
7929;SDS011;4010;42.698;23.124;2022-09-12T00:57:21;1.87;;;1.77;;
7929;SDS011;4010;42.698;23.124;2022-09-12T00:59:54;2.83;;;2.40;;
7929;SDS011;4010;42.698;23.124;2022-09-12T01:02:24;1.80;;;1.70;;
7929;SDS011;4010;42.698;23.124;2022-09-12T01:04:52;1.93;;;1.77;;
7929;SDS011;4010;42.698;23.124;2022-09-12T01:07:21;1.87;;;1.77;;
7929;SDS011;4010;42.698;23.124;2022-09-12T01:09:48;2.40;;;1.73;;
7929;SDS011;4010;42.698;23.124;2022-09-12T01:12:15;1.70;;;1.60;;
7929;SDS011;4010;42.698;23.124;2022-09-12T01:14:43;1.87;;;1.73;;
7929;SDS011;4010;42.698;23.124;2022-09-12T01:17:10;2.10;;;1.90;;
7929;SDS011;4010;42.698;23.124;2022-09-12T01:19:49;1.77;;;1.63;;
7929;SDS011;4010;42.698;23.124;2022-09-12T01:22:43;1.90;;;1.57;;
7929;SDS011;4010;42.698;23.124;2022-09-12T01:25:27;2.43;;;1.73;;
7929;SDS011;4010;42.698;23.124;2022-09-12T01:28:02;1.73;;;1.63;;
7929;SDS011;4010;42.698;23.124;2022-09-12T01:30:47;2.07;;;1.70;;
7929;SDS011;4010;42.698;23.124;2022-09-12T01:33:23;1.50;;;1.40;;
7929;SDS011;4010;42.698;23.124;2022-09-12T01:36:02;1.40;;;1.30;;
7929;SDS011;4010;42.698;23.124;2022-09-12T01:38:38;1.73;;;1.63;;
7929;SDS011;4010;42.698;23.124;2022-09-12T01:41:13;2.17;;;1.30;;
7929;SDS011;4010;42.698;23.124;2022-09-12T01:43:46;1.77;;;1.67;;
7929;SDS011;4010;42.698;23.124;2022-09-12T01:46:20;1.50;;;1.37;;
7929;SDS011;4010;42.698;23.124;2022-09-12T01:48:50;1.53;;;1.37;;
7929;SDS011;4010;42.698;23.124;2022-09-12T01:51:22;1.57;;;1.47;;
7929;SDS011;4010;42.698;23.124;2022-09-12T01:53:55;1.60;;;1.43;;
7929;SDS011;4010;42.698;23.124;2022-09-12T01:56:28;1.33;;;1.20;;
7929;SDS011;4010;42.698;23.124;2022-09-12T01:59:00;1.33;;;1.23;;
7929;SDS011;4010;42.698;23.124;2022-09-12T02:01:33;1.93;;;1.60;;
7929;SDS011;4010;42.698;23.124;2022-09-12T02:04:03;1.10;;;1.00;;
7929;SDS011;4010;42.698;23.124;2022-09-12T02:06:36;1.23;;;1.13;;
7929;SDS011;4010;42.698;23.124;2022-09-12T02:09:08;1.63;;;1.53;;
7929;SDS011;4010;42.698;23.124;2022-09-12T02:11:40;1.70;;;1.23;;
7929;SDS011;4010;42.698;23.124;2022-09-12T02:14:10;1.37;;;1.10;;
7929;SDS011;4010;42.698;23.124;2022-09-12T02:16:44;1.67;;;1.57;;
7929;SDS011;4010;42.698;23.124;2022-09-12T02:19:15;2.83;;;1.53;;
7929;SDS011;4010;42.698;23.124;2022-09-12T02:21:44;1.30;;;1.20;;
7929;SDS011;4010;42.698;23.124;2022-09-12T02:24:15;1.57;;;1.07;;
7929;SDS011;4010;42.698;23.124;2022-09-12T02:26:49;1.47;;;1.37;;
7929;SDS011;4010;42.698;23.124;2022-09-12T02:29:21;1.00;;;1.00;;
7929;SDS011;4010;42.698;23.124;2022-09-12T02:31:50;1.57;;;1.40;;
7929;SDS011;4010;42.698;23.124;2022-09-12T02:34:26;1.67;;;1.23;;
7929;SDS011;4010;42.698;23.124;2022-09-12T02:37:04;1.67;;;1.57;;
7929;SDS011;4010;42.698;23.124;2022-09-12T02:39:35;1.30;;;1.20;;
7929;SDS011;4010;42.698;23.124;2022-09-12T02:42:02;1.07;;;0.97;;
7929;SDS011;4010;42.698;23.124;2022-09-12T02:44:30;1.40;;;1.30;;
7929;SDS011;4010;42.698;23.124;2022-09-12T02:47:00;1.53;;;1.37;;
7929;SDS011;4010;42.698;23.124;2022-09-12T02:49:30;1.67;;;1.57;;
7929;SDS011;4010;42.698;23.124;2022-09-12T02:51:57;1.30;;;1.20;;
7929;SDS011;4010;42.698;23.124;2022-09-12T02:54:25;1.23;;;1.13;;
7929;SDS011;4010;42.698;23.124;2022-09-12T02:56:53;1.70;;;1.60;;
7929;SDS011;4010;42.698;23.124;2022-09-12T02:59:20;1.60;;;1.50;;
7929;SDS011;4010;42.698;23.124;2022-09-12T03:02:02;3.07;;;2.77;;
7929;SDS011;4010;42.698;23.124;2022-09-12T03:04:48;2.70;;;2.50;;
7929;SDS011;4010;42.698;23.124;2022-09-12T03:07:28;3.67;;;3.20;;
7929;SDS011;4010;42.698;23.124;2022-09-12T03:10:09;3.33;;;3.03;;
7929;SDS011;4010;42.698;23.124;2022-09-12T03:12:46;3.27;;;2.97;;
7929;SDS011;4010;42.698;23.124;2022-09-12T03:15:27;3.30;;;3.03;;
7929;SDS011;4010;42.698;23.124;2022-09-12T03:18:05;3.50;;;3.20;;
7929;SDS011;4010;42.698;23.124;2022-09-12T03:20:44;3.57;;;3.27;;
7929;SDS011;4010;42.698;23.124;2022-09-12T03:23:22;3.53;;;3.23;;
7929;SDS011;4010;42.698;23.124;2022-09-12T03:25:55;3.60;;;3.30;;
7929;SDS011;4010;42.698;23.124;2022-09-12T03:28:26;3.60;;;3.30;;
7929;SDS011;4010;42.698;23.124;2022-09-12T03:30:54;2.63;;;2.33;;
7929;SDS011;4010;42.698;23.124;2022-09-12T03:33:24;2.33;;;2.13;;
7929;SDS011;4010;42.698;23.124;2022-09-12T03:35:52;2.70;;;2.50;;
7929;SDS011;4010;42.698;23.124;2022-09-12T03:38:19;2.60;;;2.20;;
7929;SDS011;4010;42.698;23.124;2022-09-12T03:40:45;1.73;;;1.63;;
7929;SDS011;4010;42.698;23.124;2022-09-12T03:43:12;2.43;;;1.77;;
7929;SDS011;4010;42.698;23.124;2022-09-12T03:45:39;2.80;;;2.10;;
7929;SDS011;4010;42.698;23.124;2022-09-12T03:48:05;2.00;;;1.73;;
7929;SDS011;4010;42.698;23.124;2022-09-12T03:50:34;2.60;;;2.30;;
7929;SDS011;4010;42.698;23.124;2022-09-12T03:53:00;3.13;;;2.20;;
7929;SDS011;4010;42.698;23.124;2022-09-12T03:55:27;2.90;;;2.30;;
7929;SDS011;4010;42.698;23.124;2022-09-12T03:57:55;2.03;;;1.83;;
7929;SDS011;4010;42.698;23.124;2022-09-12T04:00:22;2.40;;;2.07;;
7929;SDS011;4010;42.698;23.124;2022-09-12T04:02:52;2.57;;;2.20;;
7929;SDS011;4010;42.698;23.124;2022-09-12T04:05:20;3.43;;;2.23;;
7929;SDS011;4010;42.698;23.124;2022-09-12T04:07:48;2.57;;;2.07;;
7929;SDS011;4010;42.698;23.124;2022-09-12T04:10:15;2.77;;;2.20;;
7929;SDS011;4010;42.698;23.124;2022-09-12T04:12:42;2.17;;;1.97;;
7929;SDS011;4010;42.698;23.124;2022-09-12T04:15:10;2.33;;;2.13;;
7929;SDS011;4010;42.698;23.124;2022-09-12T04:17:37;2.80;;;2.23;;
7929;SDS011;4010;42.698;23.124;2022-09-12T04:20:04;2.47;;;2.17;;
7929;SDS011;4010;42.698;23.124;2022-09-12T04:22:31;2.80;;;2.60;;
7929;SDS011;4010;42.698;23.124;2022-09-12T04:24:59;4.70;;;2.57;;
7929;SDS011;4010;42.698;23.124;2022-09-12T04:27:26;3.37;;;2.33;;
7929;SDS011;4010;42.698;23.124;2022-09-12T04:29:53;2.00;;;1.90;;
7929;SDS011;4010;42.698;23.124;2022-09-12T04:32:20;2.90;;;2.70;;
7929;SDS011;4010;42.698;23.124;2022-09-12T04:34:47;2.77;;;2.37;;
7929;SDS011;4010;42.698;23.124;2022-09-12T04:37:13;2.77;;;2.47;;
7929;SDS011;4010;42.698;23.124;2022-09-12T04:39:41;2.87;;;2.03;;
7929;SDS011;4010;42.698;23.124;2022-09-12T04:42:09;2.27;;;1.93;;
7929;SDS011;4010;42.698;23.124;2022-09-12T04:44:35;2.83;;;2.07;;
7929;SDS011;4010;42.698;23.124;2022-09-12T04:47:02;4.37;;;3.60;;
7929;SDS011;4010;42.698;23.124;2022-09-12T04:49:29;6.60;;;4.37;;
7929;SDS011;4010;42.698;23.124;2022-09-12T04:51:56;9.73;;;5.70;;
7929;SDS011;4010;42.698;23.124;2022-09-12T04:54:22;8.07;;;5.73;;
7929;SDS011;4010;42.698;23.124;2022-09-12T04:56:50;5.73;;;4.93;;
7929;SDS011;4010;42.698;23.124;2022-09-12T04:59:20;4.50;;;4.10;;
7929;SDS011;4010;42.698;23.124;2022-09-12T05:01:47;3.30;;;3.00;;
7929;SDS011;4010;42.698;23.124;2022-09-12T05:04:14;2.10;;;1.90;;
7929;SDS011;4010;42.698;23.124;2022-09-12T05:06:41;1.90;;;1.70;;
7929;SDS011;4010;42.698;23.124;2022-09-12T05:09:11;1.50;;;1.40;;
7929;SDS011;4010;42.698;23.124;2022-09-12T05:11:39;2.23;;;2.03;;
7929;SDS011;4010;42.698;23.124;2022-09-12T05:14:08;1.97;;;1.77;;
7929;SDS011;4010;42.698;23.124;2022-09-12T05:16:36;1.60;;;1.50;;
7929;SDS011;4010;42.698;23.124;2022-09-12T05:19:03;1.97;;;1.77;;
7929;SDS011;4010;42.698;23.124;2022-09-12T05:21:30;1.50;;;1.40;;
7929;SDS011;4010;42.698;23.124;2022-09-12T05:23:57;1.87;;;1.67;;
7929;SDS011;4010;42.698;23.124;2022-09-12T05:26:24;1.57;;;1.47;;
7929;SDS011;4010;42.698;23.124;2022-09-12T05:28:52;1.40;;;1.30;;
7929;SDS011;4010;42.698;23.124;2022-09-12T05:31:19;2.00;;;1.90;;
7929;SDS011;4010;42.698;23.124;2022-09-12T05:33:49;1.50;;;1.40;;
7929;SDS011;4010;42.698;23.124;2022-09-12T05:36:17;2.20;;;2.00;;
7929;SDS011;4010;42.698;23.124;2022-09-12T05:38:45;2.00;;;1.90;;
7929;SDS011;4010;42.698;23.124;2022-09-12T05:41:13;1.83;;;1.73;;
7929;SDS011;4010;42.698;23.124;2022-09-12T05:43:41;2.03;;;1.83;;
7929;SDS011;4010;42.698;23.124;2022-09-12T05:46:10;2.00;;;1.90;;
7929;SDS011;4010;42.698;23.124;2022-09-12T05:48:38;1.73;;;1.63;;
7929;SDS011;4010;42.698;23.124;2022-09-12T05:51:08;1.90;;;1.80;;
7929;SDS011;4010;42.698;23.124;2022-09-12T05:53:36;1.83;;;1.73;;
7929;SDS011;4010;42.698;23.124;2022-09-12T05:56:06;1.83;;;1.73;;
7929;SDS011;4010;42.698;23.124;2022-09-12T05:58:34;1.83;;;1.73;;
7929;SDS011;4010;42.698;23.124;2022-09-12T06:01:02;2.30;;;2.10;;
7929;SDS011;4010;42.698;23.124;2022-09-12T06:03:31;2.03;;;1.93;;
7929;SDS011;4010;42.698;23.124;2022-09-12T06:06:00;2.20;;;2.00;;
7929;SDS011;4010;42.698;23.124;2022-09-12T06:08:29;1.90;;;1.80;;
7929;SDS011;4010;42.698;23.124;2022-09-12T06:11:00;2.17;;;1.97;;
7929;SDS011;4010;42.698;23.124;2022-09-12T06:13:29;1.90;;;1.80;;
7929;SDS011;4010;42.698;23.124;2022-09-12T06:16:01;2.87;;;2.50;;
7929;SDS011;4010;42.698;23.124;2022-09-12T06:18:29;2.30;;;2.10;;
7929;SDS011;4010;42.698;23.124;2022-09-12T06:20:56;2.27;;;2.13;;
7929;SDS011;4010;42.698;23.124;2022-09-12T06:23:25;2.40;;;2.20;;
7929;SDS011;4010;42.698;23.124;2022-09-12T06:25:53;2.13;;;1.93;;
7929;SDS011;4010;42.698;23.124;2022-09-12T06:28:20;2.30;;;2.10;;
7929;SDS011;4010;42.698;23.124;2022-09-12T06:30:47;2.23;;;2.10;;
7929;SDS011;4010;42.698;23.124;2022-09-12T06:33:14;1.80;;;1.70;;
7929;SDS011;4010;42.698;23.124;2022-09-12T06:35:40;2.00;;;1.90;;
7929;SDS011;4010;42.698;23.124;2022-09-12T06:38:07;1.93;;;1.83;;
7929;SDS011;4010;42.698;23.124;2022-09-12T06:40:34;2.20;;;2.00;;
7929;SDS011;4010;42.698;23.124;2022-09-12T06:43:09;1.90;;;1.80;;
7929;SDS011;4010;42.698;23.124;2022-09-12T06:45:37;2.10;;;2.00;;
7929;SDS011;4010;42.698;23.124;2022-09-12T06:48:04;2.67;;;2.20;;
7929;SDS011;4010;42.698;23.124;2022-09-12T06:50:31;1.80;;;1.70;;
7929;SDS011;4010;42.698;23.124;2022-09-12T06:52:58;1.93;;;1.83;;
7929;SDS011;4010;42.698;23.124;2022-09-12T06:55:24;2.57;;;2.37;;
7929;SDS011;4010;42.698;23.124;2022-09-12T06:57:53;2.00;;;1.90;;
7929;SDS011;4010;42.698;23.124;2022-09-12T07:00:21;2.40;;;2.17;;
7929;SDS011;4010;42.698;23.124;2022-09-12T07:02:50;2.77;;;2.00;;
7929;SDS011;4010;42.698;23.124;2022-09-12T07:05:19;1.97;;;1.87;;
7929;SDS011;4010;42.698;23.124;2022-09-12T07:07:46;2.50;;;2.30;;
7929;SDS011;4010;42.698;23.124;2022-09-12T07:10:13;2.60;;;2.40;;
7929;SDS011;4010;42.698;23.124;2022-09-12T07:12:39;2.50;;;2.30;;
7929;SDS011;4010;42.698;23.124;2022-09-12T07:15:06;2.83;;;2.63;;
7929;SDS011;4010;42.698;23.124;2022-09-12T07:17:36;2.47;;;2.27;;
7929;SDS011;4010;42.698;23.124;2022-09-12T07:20:02;2.63;;;2.43;;
7929;SDS011;4010;42.698;23.124;2022-09-12T07:22:30;2.77;;;2.57;;
7929;SDS011;4010;42.698;23.124;2022-09-12T07:24:56;2.47;;;2.27;;
7929;SDS011;4010;42.698;23.124;2022-09-12T07:27:23;3.53;;;2.63;;
7929;SDS011;4010;42.698;23.124;2022-09-12T07:29:50;3.43;;;2.80;;
7929;SDS011;4010;42.698;23.124;2022-09-12T07:32:16;2.77;;;2.57;;
7929;SDS011;4010;42.698;23.124;2022-09-12T07:34:44;2.07;;;1.97;;
7929;SDS011;4010;42.698;23.124;2022-09-12T07:37:11;2.00;;;1.90;;
7929;SDS011;4010;42.698;23.124;2022-09-12T07:39:38;2.57;;;2.37;;
7929;SDS011;4010;42.698;23.124;2022-09-12T07:42:05;2.73;;;2.50;;
7929;SDS011;4010;42.698;23.124;2022-09-12T07:44:32;2.83;;;2.63;;
7929;SDS011;4010;42.698;23.124;2022-09-12T07:46:59;2.30;;;2.10;;
7929;SDS011;4010;42.698;23.124;2022-09-12T07:49:25;2.00;;;1.90;;
7929;SDS011;4010;42.698;23.124;2022-09-12T07:51:54;2.20;;;2.00;;
7929;SDS011;4010;42.698;23.124;2022-09-12T07:54:21;2.63;;;2.43;;
7929;SDS011;4010;42.698;23.124;2022-09-12T07:56:48;2.60;;;2.30;;
7929;SDS011;4010;42.698;23.124;2022-09-12T07:59:15;2.53;;;2.27;;
7929;SDS011;4010;42.698;23.124;2022-09-12T08:01:42;2.70;;;2.50;;
7929;SDS011;4010;42.698;23.124;2022-09-12T08:04:09;1.97;;;1.87;;
7929;SDS011;4010;42.698;23.124;2022-09-12T08:06:36;2.57;;;2.30;;
7929;SDS011;4010;42.698;23.124;2022-09-12T08:09:04;2.30;;;2.10;;
7929;SDS011;4010;42.698;23.124;2022-09-12T08:11:32;2.30;;;2.10;;
7929;SDS011;4010;42.698;23.124;2022-09-12T08:13:59;2.50;;;2.30;;
7929;SDS011;4010;42.698;23.124;2022-09-12T08:16:27;2.30;;;2.10;;
7929;SDS011;4010;42.698;23.124;2022-09-12T08:18:55;2.17;;;1.97;;
7929;SDS011;4010;42.698;23.124;2022-09-12T08:21:23;2.40;;;2.20;;
7929;SDS011;4010;42.698;23.124;2022-09-12T08:23:51;2.17;;;1.70;;
7929;SDS011;4010;42.698;23.124;2022-09-12T08:26:20;2.33;;;2.13;;
7929;SDS011;4010;42.698;23.124;2022-09-12T08:28:49;1.80;;;1.70;;
7929;SDS011;4010;42.698;23.124;2022-09-12T08:31:18;2.10;;;1.97;;
7929;SDS011;4010;42.698;23.124;2022-09-12T08:33:46;1.87;;;1.77;;
7929;SDS011;4010;42.698;23.124;2022-09-12T08:36:14;1.80;;;1.70;;
7929;SDS011;4010;42.698;23.124;2022-09-12T08:38:42;2.40;;;2.20;;
7929;SDS011;4010;42.698;23.124;2022-09-12T08:41:11;2.60;;;2.40;;
7929;SDS011;4010;42.698;23.124;2022-09-12T08:43:52;2.40;;;2.20;;
7929;SDS011;4010;42.698;23.124;2022-09-12T08:46:33;2.03;;;1.93;;
7929;SDS011;4010;42.698;23.124;2022-09-12T08:49:06;2.57;;;2.33;;
7929;SDS011;4010;42.698;23.124;2022-09-12T08:51:37;2.27;;;2.13;;
7929;SDS011;4010;42.698;23.124;2022-09-12T08:54:08;4.47;;;2.30;;
7929;SDS011;4010;42.698;23.124;2022-09-12T08:56:44;2.27;;;2.07;;
7929;SDS011;4010;42.698;23.124;2022-09-12T08:59:13;1.80;;;1.70;;
7929;SDS011;4010;42.698;23.124;2022-09-12T09:01:41;2.50;;;2.30;;
7929;SDS011;4010;42.698;23.124;2022-09-12T09:04:21;2.53;;;2.33;;
7929;SDS011;4010;42.698;23.124;2022-09-12T09:07:06;2.30;;;2.10;;
7929;SDS011;4010;42.698;23.124;2022-09-12T09:09:56;2.67;;;2.27;;
7929;SDS011;4010;42.698;23.124;2022-09-12T09:12:35;2.50;;;2.30;;
7929;SDS011;4010;42.698;23.124;2022-09-12T09:15:16;2.80;;;2.40;;
7929;SDS011;4010;42.698;23.124;2022-09-12T09:17:52;3.27;;;3.00;;
7929;SDS011;4010;42.698;23.124;2022-09-12T09:20:25;2.33;;;2.17;;
7929;SDS011;4010;42.698;23.124;2022-09-12T09:22:56;2.63;;;2.43;;
7929;SDS011;4010;42.698;23.124;2022-09-12T09:25:33;2.37;;;2.17;;
7929;SDS011;4010;42.698;23.124;2022-09-12T09:28:10;2.57;;;2.20;;
7929;SDS011;4010;42.698;23.124;2022-09-12T09:30:43;2.13;;;2.00;;
7929;SDS011;4010;42.698;23.124;2022-09-12T09:33:14;2.43;;;2.23;;
7929;SDS011;4010;42.698;23.124;2022-09-12T09:35:47;2.40;;;2.20;;
7929;SDS011;4010;42.698;23.124;2022-09-12T09:38:22;3.07;;;2.77;;
7929;SDS011;4010;42.698;23.124;2022-09-12T09:41:02;2.50;;;2.30;;
7929;SDS011;4010;42.698;23.124;2022-09-12T09:43:39;1.93;;;1.83;;
7929;SDS011;4010;42.698;23.124;2022-09-12T09:46:08;3.03;;;2.73;;
7929;SDS011;4010;42.698;23.124;2022-09-12T09:48:36;2.30;;;2.10;;
7929;SDS011;4010;42.698;23.124;2022-09-12T09:51:06;2.57;;;2.37;;
7929;SDS011;4010;42.698;23.124;2022-09-12T09:53:36;2.57;;;2.37;;
7929;SDS011;4010;42.698;23.124;2022-09-12T09:56:10;2.40;;;2.20;;
7929;SDS011;4010;42.698;23.124;2022-09-12T09:58:47;2.50;;;2.30;;
7929;SDS011;4010;42.698;23.124;2022-09-12T10:01:15;2.50;;;2.30;;
7929;SDS011;4010;42.698;23.124;2022-09-12T10:03:46;2.70;;;2.50;;
7929;SDS011;4010;42.698;23.124;2022-09-12T10:06:22;2.60;;;2.40;;
7929;SDS011;4010;42.698;23.124;2022-09-12T10:09:02;2.33;;;2.13;;
7929;SDS011;4010;42.698;23.124;2022-09-12T10:11:31;2.90;;;2.70;;
7929;SDS011;4010;42.698;23.124;2022-09-12T10:13:58;2.53;;;2.33;;
7929;SDS011;4010;42.698;23.124;2022-09-12T10:16:27;2.80;;;2.60;;
7929;SDS011;4010;42.698;23.124;2022-09-12T10:18:56;2.63;;;2.43;;
7929;SDS011;4010;42.698;23.124;2022-09-12T10:21:26;2.80;;;2.60;;
7929;SDS011;4010;42.698;23.124;2022-09-12T10:24:09;2.70;;;2.50;;
7929;SDS011;4010;42.698;23.124;2022-09-12T10:26:52;3.13;;;2.50;;
7929;SDS011;4010;42.698;23.124;2022-09-12T10:29:23;2.53;;;2.33;;
7929;SDS011;4010;42.698;23.124;2022-09-12T10:31:55;3.07;;;2.80;;
7929;SDS011;4010;42.698;23.124;2022-09-12T10:34:25;3.10;;;2.87;;
7929;SDS011;4010;42.698;23.124;2022-09-12T10:37:00;2.80;;;2.23;;
7929;SDS011;4010;42.698;23.124;2022-09-12T10:39:30;2.63;;;2.43;;
7929;SDS011;4010;42.698;23.124;2022-09-12T10:41:59;2.70;;;2.50;;
7929;SDS011;4010;42.698;23.124;2022-09-12T10:44:27;2.23;;;2.03;;
7929;SDS011;4010;42.698;23.124;2022-09-12T10:46:56;2.17;;;2.03;;
7929;SDS011;4010;42.698;23.124;2022-09-12T10:49:25;2.60;;;2.40;;
7929;SDS011;4010;42.698;23.124;2022-09-12T10:51:55;2.60;;;2.40;;
7929;SDS011;4010;42.698;23.124;2022-09-12T10:54:25;2.87;;;2.67;;
7929;SDS011;4010;42.698;23.124;2022-09-12T11:00:09;3.23;;;2.93;;
7929;SDS011;4010;42.698;23.124;2022-09-12T11:02:50;2.80;;;2.60;;
7929;SDS011;4010;42.698;23.124;2022-09-12T11:05:32;2.80;;;2.50;;
7929;SDS011;4010;42.698;23.124;2022-09-12T11:08:10;2.90;;;2.60;;
7929;SDS011;4010;42.698;23.124;2022-09-12T11:10:46;2.37;;;2.17;;
7929;SDS011;4010;42.698;23.124;2022-09-12T11:13:24;2.70;;;2.50;;
7929;SDS011;4010;42.698;23.124;2022-09-12T11:16:11;2.73;;;2.53;;
7929;SDS011;4010;42.698;23.124;2022-09-12T11:21:42;3.00;;;2.80;;
7929;SDS011;4010;42.698;23.124;2022-09-12T11:24:22;3.10;;;2.80;;
7929;SDS011;4010;42.698;23.124;2022-09-12T11:27:11;2.80;;;2.60;;
7929;SDS011;4010;42.698;23.124;2022-09-12T11:29:54;3.33;;;3.03;;
7929;SDS011;4010;42.698;23.124;2022-09-12T11:32:37;2.90;;;2.70;;
7929;SDS011;4010;42.698;23.124;2022-09-12T11:35:17;3.40;;;3.10;;
7929;SDS011;4010;42.698;23.124;2022-09-12T11:41:00;2.60;;;2.40;;
7929;SDS011;4010;42.698;23.124;2022-09-12T11:43:34;1.87;;;1.77;;
7929;SDS011;4010;42.698;23.124;2022-09-12T11:46:05;1.70;;;1.60;;
7929;SDS011;4010;42.698;23.124;2022-09-12T11:48:40;1.87;;;1.77;;
7929;SDS011;4010;42.698;23.124;2022-09-12T11:51:16;1.60;;;1.50;;
7929;SDS011;4010;42.698;23.124;2022-09-12T11:53:46;2.20;;;2.00;;
7929;SDS011;4010;42.698;23.124;2022-09-12T11:56:23;1.67;;;1.57;;
7929;SDS011;4010;42.698;23.124;2022-09-12T11:58:52;1.90;;;1.80;;
7929;SDS011;4010;42.698;23.124;2022-09-12T12:01:25;2.10;;;1.93;;
7929;SDS011;4010;42.698;23.124;2022-09-12T12:03:57;2.17;;;1.97;;
7929;SDS011;4010;42.698;23.124;2022-09-12T12:06:35;2.40;;;2.20;;
7929;SDS011;4010;42.698;23.124;2022-09-12T12:09:12;1.90;;;1.80;;
7929;SDS011;4010;42.698;23.124;2022-09-12T12:11:40;2.00;;;1.80;;
7929;SDS011;4010;42.698;23.124;2022-09-12T12:14:12;2.10;;;2.00;;
7929;SDS011;4010;42.698;23.124;2022-09-12T12:16:42;1.67;;;1.57;;
7929;SDS011;4010;42.698;23.124;2022-09-12T12:19:22;1.43;;;1.33;;
7929;SDS011;4010;42.698;23.124;2022-09-12T12:22:03;2.17;;;1.77;;
7929;SDS011;4010;42.698;23.124;2022-09-12T12:24:32;1.50;;;1.40;;
7929;SDS011;4010;42.698;23.124;2022-09-12T12:27:00;1.43;;;1.33;;
7929;SDS011;4010;42.698;23.124;2022-09-12T12:29:40;1.50;;;1.40;;
7929;SDS011;4010;42.698;23.124;2022-09-12T12:32:18;1.73;;;1.63;;
7929;SDS011;4010;42.698;23.124;2022-09-12T12:35:00;1.50;;;1.40;;
7929;SDS011;4010;42.698;23.124;2022-09-12T12:37:53;1.60;;;1.50;;
7929;SDS011;4010;42.698;23.124;2022-09-12T12:40:24;1.73;;;1.63;;
7929;SDS011;4010;42.698;23.124;2022-09-12T12:43:03;1.90;;;1.80;;
7929;SDS011;4010;42.698;23.124;2022-09-12T12:51:39;2.10;;;1.90;;
7929;SDS011;4010;42.698;23.124;2022-09-12T12:54:33;2.03;;;1.77;;
7929;SDS011;4010;42.698;23.124;2022-09-12T12:57:32;2.07;;;1.90;;
7929;SDS011;4010;42.698;23.124;2022-09-12T13:00:06;1.87;;;1.77;;
7929;SDS011;4010;42.698;23.124;2022-09-12T13:02:51;2.27;;;2.07;;
7929;SDS011;4010;42.698;23.124;2022-09-12T13:05:23;1.70;;;1.60;;
7929;SDS011;4010;42.698;23.124;2022-09-12T13:07:52;2.07;;;1.73;;
7929;SDS011;4010;42.698;23.124;2022-09-12T13:10:24;2.00;;;1.90;;
7929;SDS011;4010;42.698;23.124;2022-09-12T13:12:53;2.40;;;2.10;;
7929;SDS011;4010;42.698;23.124;2022-09-12T13:18:13;1.90;;;1.80;;
7929;SDS011;4010;42.698;23.124;2022-09-12T13:20:44;2.30;;;2.20;;
7929;SDS011;4010;42.698;23.124;2022-09-12T13:23:21;1.70;;;1.60;;
7929;SDS011;4010;42.698;23.124;2022-09-12T13:25:54;2.20;;;2.10;;
7929;SDS011;4010;42.698;23.124;2022-09-12T13:28:22;2.33;;;2.13;;
7929;SDS011;4010;42.698;23.124;2022-09-12T13:30:53;2.07;;;1.97;;
7929;SDS011;4010;42.698;23.124;2022-09-12T13:33:27;2.50;;;2.30;;
7929;SDS011;4010;42.698;23.124;2022-09-12T13:36:08;2.73;;;2.53;;
7929;SDS011;4010;42.698;23.124;2022-09-12T13:44:50;2.53;;;2.33;;
7929;SDS011;4010;42.698;23.124;2022-09-12T13:47:22;2.90;;;2.70;;
7929;SDS011;4010;42.698;23.124;2022-09-12T13:49:53;2.43;;;2.30;;
7929;SDS011;4010;42.698;23.124;2022-09-12T13:52:22;2.40;;;2.20;;
7929;SDS011;4010;42.698;23.124;2022-09-12T13:54:54;2.60;;;2.40;;
7929;SDS011;4010;42.698;23.124;2022-09-12T13:57:28;2.80;;;2.60;;
7929;SDS011;4010;42.698;23.124;2022-09-12T13:59:58;2.63;;;2.43;;
7929;SDS011;4010;42.698;23.124;2022-09-12T14:02:26;2.97;;;2.77;;
7929;SDS011;4010;42.698;23.124;2022-09-12T14:04:55;2.57;;;2.37;;
7929;SDS011;4010;42.698;23.124;2022-09-12T14:07:37;2.67;;;2.47;;
7929;SDS011;4010;42.698;23.124;2022-09-12T14:10:12;2.33;;;2.13;;
7929;SDS011;4010;42.698;23.124;2022-09-12T14:12:47;3.00;;;2.80;;
7929;SDS011;4010;42.698;23.124;2022-09-12T14:15:16;2.30;;;2.10;;
7929;SDS011;4010;42.698;23.124;2022-09-12T14:17:48;2.50;;;2.30;;
7929;SDS011;4010;42.698;23.124;2022-09-12T14:20:17;2.43;;;2.27;;
7929;SDS011;4010;42.698;23.124;2022-09-12T14:22:47;2.17;;;1.97;;
7929;SDS011;4010;42.698;23.124;2022-09-12T14:25:14;2.50;;;2.30;;
7929;SDS011;4010;42.698;23.124;2022-09-12T14:27:44;2.77;;;2.57;;
7929;SDS011;4010;42.698;23.124;2022-09-12T14:30:23;2.77;;;2.57;;
7929;SDS011;4010;42.698;23.124;2022-09-12T14:33:02;2.50;;;2.30;;
7929;SDS011;4010;42.698;23.124;2022-09-12T14:35:31;2.50;;;2.30;;
7929;SDS011;4010;42.698;23.124;2022-09-12T14:38:04;2.20;;;2.00;;
7929;SDS011;4010;42.698;23.124;2022-09-12T14:40:38;2.90;;;2.30;;
7929;SDS011;4010;42.698;23.124;2022-09-12T14:43:15;2.37;;;2.17;;
7929;SDS011;4010;42.698;23.124;2022-09-12T14:45:51;2.37;;;2.17;;
7929;SDS011;4010;42.698;23.124;2022-09-12T14:48:20;2.40;;;2.20;;
7929;SDS011;4010;42.698;23.124;2022-09-12T14:50:49;2.67;;;2.47;;
7929;SDS011;4010;42.698;23.124;2022-09-12T14:53:22;2.47;;;2.27;;
7929;SDS011;4010;42.698;23.124;2022-09-12T14:55:52;2.50;;;2.30;;
7929;SDS011;4010;42.698;23.124;2022-09-12T14:58:23;2.40;;;2.20;;
7929;SDS011;4010;42.698;23.124;2022-09-12T15:00:54;2.80;;;2.60;;
7929;SDS011;4010;42.698;23.124;2022-09-12T15:03:24;2.10;;;1.97;;
7929;SDS011;4010;42.698;23.124;2022-09-12T15:05:53;2.10;;;2.00;;
7929;SDS011;4010;42.698;23.124;2022-09-12T15:08:20;2.50;;;2.30;;
7929;SDS011;4010;42.698;23.124;2022-09-12T15:10:47;2.70;;;2.50;;
7929;SDS011;4010;42.698;23.124;2022-09-12T15:13:18;2.30;;;2.10;;
7929;SDS011;4010;42.698;23.124;2022-09-12T15:15:47;2.67;;;2.47;;
7929;SDS011;4010;42.698;23.124;2022-09-12T15:18:17;2.10;;;2.00;;
7929;SDS011;4010;42.698;23.124;2022-09-12T15:20:47;2.27;;;2.13;;
7929;SDS011;4010;42.698;23.124;2022-09-12T15:23:17;2.20;;;2.10;;
7929;SDS011;4010;42.698;23.124;2022-09-12T15:25:50;2.00;;;1.90;;
7929;SDS011;4010;42.698;23.124;2022-09-12T15:28:18;2.47;;;2.27;;
7929;SDS011;4010;42.698;23.124;2022-09-12T15:30:46;2.37;;;2.17;;
7929;SDS011;4010;42.698;23.124;2022-09-12T15:33:15;2.30;;;2.20;;
7929;SDS011;4010;42.698;23.124;2022-09-12T15:35:45;2.43;;;2.23;;
7929;SDS011;4010;42.698;23.124;2022-09-12T15:38:12;2.50;;;2.30;;
7929;SDS011;4010;42.698;23.124;2022-09-12T15:40:38;1.97;;;1.87;;
7929;SDS011;4010;42.698;23.124;2022-09-12T15:43:05;2.50;;;2.30;;
7929;SDS011;4010;42.698;23.124;2022-09-12T15:45:33;2.50;;;2.30;;
7929;SDS011;4010;42.698;23.124;2022-09-12T15:48:00;2.30;;;2.10;;